Time;durP1;ratioP1;P1;durP2;ratioP2;P2;SDS_P1;SDS_P2;PMS_P1;PMS_P2;Temp;Humidity;BMP_temperature;BMP_pressure;BME280_temperature;BME280_humidity;BME280_pressure;Samples;Min_cycle;Max_cycle;Signal;HPM_P1;HPM_P2
2022/06/08 00:02:14;;;;;;;;;;;23.50;94.50;;;;;;5112587;27;19923;-69
2022/06/08 00:04:41;;;;;;;;;;;23.50;94.50;;;;;;5129653;27;20330;-66
2022/06/08 00:07:08;;;;;;;;;;;23.50;94.50;;;;;;5116848;27;19931;-67
2022/06/08 00:09:36;;;;;;;;;;;23.50;94.50;;;;;;5122578;27;19928;-67
2022/06/08 00:12:04;;;;;;;;;;;23.50;94.50;;;;;;5117138;27;19928;-68
2022/06/08 00:14:31;;;;;;;;;;;23.50;94.50;;;;;;5112324;27;19924;-67
2022/06/08 00:16:58;;;;;;;;;;;23.50;94.50;;;;;;5114993;27;19928;-69
2022/06/08 00:19:25;;;;;;;;;;;23.50;94.50;;;;;;5115754;27;19924;-68
2022/06/08 00:21:52;;;;;;;;;;;23.50;94.50;;;;;;5126125;27;19951;-68
2022/06/08 00:24:19;;;;;;;;;;;23.50;94.50;;;;;;5114248;27;20599;-67
2022/06/08 00:26:47;;;;;;;;;;;23.50;94.50;;;;;;5127560;27;19938;-67
2022/06/08 00:29:14;;;;;;;;;;;23.50;94.50;;;;;;5120964;27;19927;-65
2022/06/08 00:31:43;;;;;;;;;;;23.50;94.50;;;;;;5109409;27;19923;-69
2022/06/08 00:34:10;;;;;;;;;;;23.50;94.50;;;;;;5100566;27;20298;-67
2022/06/08 00:36:37;;;;;;;;;;;23.50;94.50;;;;;;5118493;27;19923;-66
2022/06/08 00:39:05;;;;;;;;;;;23.50;94.50;;;;;;5112224;27;19924;-66
2022/06/08 00:41:32;;;;;;;;;;;23.40;94.50;;;;;;5122914;27;19942;-67
2022/06/08 00:44:03;;;;;;;;;;;23.50;94.50;;;;;;5112104;28;20836;-68
2022/06/08 00:46:31;;;;;;;;;;;23.40;94.50;;;;;;5104915;28;20338;-67
2022/06/08 00:49:34;;;;;;;;;;;23.50;94.50;;;;;;5112276;27;20463;-67
2022/06/08 00:52:01;;;;;;;;;;;23.50;94.40;;;;;;5017620;28;19932;-67
2022/06/08 00:54:30;;;;;;;;;;;23.40;94.50;;;;;;5089185;28;19931;-69
2022/06/08 00:57:11;;;;;;;;;;;23.40;94.40;;;;;;5120191;27;20044;-69
2022/06/08 00:59:43;;;;;;;;;;;23.40;94.40;;;;;;5132164;27;20438;-67
2022/06/08 01:02:10;;;;;;;;;;;23.40;94.40;;;;;;5112326;27;19931;-67
2022/06/08 01:04:38;;;;;;;;;;;23.40;94.40;;;;;;5110221;27;20291;-68
2022/06/08 01:07:05;;;;;;;;;;;23.40;94.40;;;;;;5114742;27;20785;-68
2022/06/08 01:09:37;;;;;;;;;;;23.40;94.40;;;;;;5102582;27;19928;-69
2022/06/08 01:12:17;;;;;;;;;;;23.40;94.40;;;;;;5113592;27;19950;-68
2022/06/08 01:14:49;;;;;;;;;;;23.40;94.40;;;;;;5096544;27;19923;-68
2022/06/08 01:17:18;;;;;;;;;;;23.40;94.40;;;;;;5111314;27;20295;-67
2022/06/08 01:19:49;;;;;;;;;;;23.40;94.40;;;;;;5097730;28;19923;-66
2022/06/08 01:22:20;;;;;;;;;;;23.40;94.40;;;;;;5108220;27;19927;-69
2022/06/08 01:24:54;;;;;;;;;;;23.40;94.40;;;;;;5091973;27;19943;-70
2022/06/08 01:27:52;;;;;;;;;;;23.40;94.40;;;;;;5109883;27;19927;-68
2022/06/08 01:30:24;;;;;;;;;;;23.40;94.40;;;;;;5097234;27;19927;-69
2022/06/08 01:32:57;;;;;;;;;;;23.40;94.40;;;;;;5108985;27;20086;-69
2022/06/08 01:35:43;;;;;;;;;;;23.40;94.40;;;;;;5095058;27;19945;-65
2022/06/08 01:38:10;;;;;;;;;;;23.40;94.40;;;;;;5114376;27;19927;-67
2022/06/08 01:40:49;;;;;;;;;;;23.40;94.40;;;;;;5094228;27;19928;-68
2022/06/08 01:43:25;;;;;;;;;;;23.40;94.40;;;;;;5110679;27;19927;-68
2022/06/08 01:45:53;;;;;;;;;;;23.30;94.40;;;;;;5117938;27;19971;-67
2022/06/08 01:48:20;;;;;;;;;;;23.30;94.40;;;;;;5098176;27;19932;-69
2022/06/08 01:50:50;;;;;;;;;;;23.30;94.40;;;;;;5120437;27;20634;-67
2022/06/08 01:53:20;;;;;;;;;;;23.30;94.40;;;;;;5111638;27;20358;-67
2022/06/08 01:55:51;;;;;;;;;;;23.30;94.40;;;;;;5106608;28;20335;-68
2022/06/08 01:58:23;;;;;;;;;;;23.30;94.30;;;;;;5120685;27;19924;-68
2022/06/08 02:00:54;;;;;;;;;;;23.30;94.30;;;;;;5098151;28;20042;-71
2022/06/08 02:03:25;;;;;;;;;;;23.30;94.30;;;;;;5111651;27;19927;-66
2022/06/08 02:06:00;;;;;;;;;;;23.30;94.30;;;;;;5106890;28;19928;-64
2022/06/08 02:08:30;;;;;;;;;;;23.30;94.30;;;;;;5097741;28;19935;-69
2022/06/08 02:11:00;;;;;;;;;;;23.30;94.30;;;;;;5100884;27;19935;-68
2022/06/08 02:13:37;;;;;;;;;;;23.30;94.30;;;;;;5094227;27;20283;-65
2022/06/08 02:16:10;;;;;;;;;;;23.30;94.30;;;;;;5092826;28;19951;-65
2022/06/08 02:18:46;;;;;;;;;;;23.30;94.30;;;;;;5101500;27;20290;-68
2022/06/08 02:21:19;;;;;;;;;;;23.30;94.30;;;;;;5108826;28;19930;-66
2022/06/08 02:23:47;;;;;;;;;;;23.20;94.30;;;;;;5100871;28;20307;-68
2022/06/08 02:26:18;;;;;;;;;;;23.30;94.30;;;;;;5092080;28;19983;-66
2022/06/08 02:28:48;;;;;;;;;;;23.30;94.30;;;;;;5121479;27;19930;-69
2022/06/08 02:31:18;;;;;;;;;;;23.20;94.30;;;;;;5114628;27;19924;-69
2022/06/08 02:36:49;;;;;;;;;;;23.30;94.40;;;;;;5120709;27;19939;-68
2022/06/08 02:39:21;;;;;;;;;;;23.20;94.40;;;;;;5096926;28;19928;-68
2022/06/08 02:41:50;;;;;;;;;;;23.30;94.40;;;;;;5132850;27;19923;-69
2022/06/08 02:44:20;;;;;;;;;;;23.20;94.40;;;;;;5109072;27;19934;-68
2022/06/08 02:46:56;;;;;;;;;;;23.20;94.30;;;;;;5102569;28;19928;-66
2022/06/08 02:49:28;;;;;;;;;;;23.20;94.30;;;;;;5106644;28;20440;-66
2022/06/08 02:51:58;;;;;;;;;;;23.20;94.30;;;;;;5090515;28;19935;-67
2022/06/08 02:54:26;;;;;;;;;;;23.20;94.30;;;;;;5123464;27;20022;-67
2022/06/08 02:57:05;;;;;;;;;;;23.20;94.40;;;;;;5107055;28;19924;-69
2022/06/08 02:59:34;;;;;;;;;;;23.20;94.40;;;;;;5104591;28;19924;-69
2022/06/08 03:02:04;;;;;;;;;;;23.20;94.30;;;;;;5111089;28;19927;-67
2022/06/08 03:04:45;;;;;;;;;;;23.20;94.30;;;;;;5099760;28;19935;-68
2022/06/08 03:07:16;;;;;;;;;;;23.20;94.40;;;;;;5109010;28;19924;-68
2022/06/08 03:09:44;;;;;;;;;;;23.20;94.30;;;;;;5090715;28;19924;-68
2022/06/08 03:12:16;;;;;;;;;;;23.20;94.30;;;;;;5108850;28;19927;-65
2022/06/08 03:14:44;;;;;;;;;;;23.20;94.30;;;;;;5097912;28;19950;-68
2022/06/08 03:17:14;;;;;;;;;;;23.20;94.30;;;;;;5111196;28;20132;-66
2022/06/08 03:19:42;;;;;;;;;;;23.20;94.30;;;;;;5114054;28;19928;-68
2022/06/08 03:22:09;;;;;;;;;;;23.20;94.30;;;;;;5109557;28;19928;-67
2022/06/08 03:24:36;;;;;;;;;;;23.10;94.30;;;;;;5090752;28;19928;-68
2022/06/08 03:27:08;;;;;;;;;;;23.10;94.30;;;;;;5090731;28;19924;-66
2022/06/08 03:29:37;;;;;;;;;;;23.10;94.30;;;;;;5100757;28;20307;-67
2022/06/08 03:32:05;;;;;;;;;;;23.10;94.30;;;;;;5093194;28;20386;-69
2022/06/08 03:34:33;;;;;;;;;;;23.10;94.30;;;;;;5099264;28;19947;-69
2022/06/08 03:37:00;;;;;;;;;;;23.20;94.30;;;;;;5094812;28;19935;-68
2022/06/08 03:39:29;;;;;;;;;;;23.10;94.20;;;;;;5110613;28;19934;-66
2022/06/08 03:41:57;;;;;;;;;;;23.10;94.20;;;;;;5111162;28;20318;-66
2022/06/08 03:44:24;;;;;;;;;;;23.10;94.20;;;;;;5128992;28;19927;-68
2022/06/08 03:46:57;;;;;;;;;;;23.10;94.20;;;;;;5105861;28;19934;-67
2022/06/08 03:49:24;;;;;;;;;;;23.10;94.20;;;;;;5110400;28;19959;-69
2022/06/08 03:51:54;;;;;;;;;;;23.10;94.30;;;;;;5108608;28;20418;-68
2022/06/08 03:54:23;;;;;;;;;;;23.10;94.20;;;;;;5089944;28;19924;-70
2022/06/08 03:56:52;;;;;;;;;;;23.10;94.20;;;;;;5110925;28;20370;-67
2022/06/08 03:59:22;;;;;;;;;;;23.10;94.20;;;;;;5108462;28;19928;-68
2022/06/08 04:01:53;;;;;;;;;;;23.10;94.20;;;;;;5103175;27;19966;-66
2022/06/08 04:04:21;;;;;;;;;;;23.10;94.20;;;;;;5111847;27;19931;-67
2022/06/08 04:06:49;;;;;;;;;;;23.10;94.20;;;;;;5109558;28;19935;-67
2022/06/08 04:09:17;;;;;;;;;;;23.10;94.20;;;;;;5103786;28;19928;-68
2022/06/08 04:11:48;;;;;;;;;;;23.10;94.20;;;;;;5109805;27;19935;-68
2022/06/08 04:14:16;;;;;;;;;;;23.10;94.20;;;;;;5100468;27;19930;-68
2022/06/08 04:16:45;;;;;;;;;;;23.10;94.20;;;;;;5096327;28;19927;-69
2022/06/08 04:19:17;;;;;;;;;;;23.10;94.20;;;;;;5110149;27;19935;-65
2022/06/08 04:21:45;;;;;;;;;;;23.10;94.20;;;;;;5095972;28;20390;-68
2022/06/08 04:24:13;;;;;;;;;;;23.10;94.20;;;;;;5093777;28;19969;-69
2022/06/08 04:26:45;;;;;;;;;;;23.00;94.10;;;;;;5099874;27;19942;-68
2022/06/08 04:29:20;;;;;;;;;;;23.10;94.20;;;;;;5113876;27;20414;-68
2022/06/08 04:31:47;;;;;;;;;;;23.00;94.10;;;;;;5115848;27;19934;-67
2022/06/08 04:34:19;;;;;;;;;;;23.10;94.20;;;;;;5095701;27;19932;-68
2022/06/08 04:36:47;;;;;;;;;;;23.10;94.10;;;;;;5105257;28;19924;-69
2022/06/08 04:39:15;;;;;;;;;;;23.00;94.10;;;;;;5105410;28;19927;-64
2022/06/08 04:41:51;;;;;;;;;;;23.00;94.10;;;;;;5097857;27;19931;-68
2022/06/08 04:44:21;;;;;;;;;;;23.00;94.10;;;;;;5110396;28;19927;-69
2022/06/08 04:46:50;;;;;;;;;;;23.00;94.10;;;;;;5117979;27;20336;-69
2022/06/08 04:49:21;;;;;;;;;;;23.00;94.10;;;;;;5078033;28;19927;-68
2022/06/08 04:51:49;;;;;;;;;;;23.00;94.10;;;;;;5097071;28;19927;-69
2022/06/08 04:54:18;;;;;;;;;;;23.00;94.10;;;;;;5099532;27;19931;-66
2022/06/08 04:56:47;;;;;;;;;;;23.00;94.10;;;;;;5126294;27;19985;-68
2022/06/08 04:59:18;;;;;;;;;;;23.00;94.10;;;;;;5109753;27;19938;-68
2022/06/08 05:01:51;;;;;;;;;;;23.00;94.10;;;;;;5112933;27;19931;-68
2022/06/08 05:04:19;;;;;;;;;;;23.00;94.10;;;;;;5096787;27;20043;-68
2022/06/08 05:06:49;;;;;;;;;;;23.00;94.10;;;;;;5110945;28;19930;-70
2022/06/08 05:09:17;;;;;;;;;;;23.00;94.10;;;;;;5106129;28;19928;-69
2022/06/08 05:11:47;;;;;;;;;;;23.00;94.10;;;;;;5110971;27;19927;-68
2022/06/08 05:14:17;;;;;;;;;;;23.00;94.10;;;;;;5113245;27;19928;-69
2022/06/08 05:16:45;;;;;;;;;;;23.00;94.10;;;;;;5103939;28;20006;-69
2022/06/08 05:19:12;;;;;;;;;;;23.00;94.10;;;;;;5108803;27;19927;-69
2022/06/08 05:21:40;;;;;;;;;;;23.00;94.10;;;;;;5095281;28;20421;-67
2022/06/08 05:24:13;;;;;;;;;;;23.00;94.10;;;;;;5093048;28;19935;-68
2022/06/08 05:26:44;;;;;;;;;;;23.00;94.10;;;;;;5094099;28;19924;-65
2022/06/08 05:29:12;;;;;;;;;;;23.00;94.10;;;;;;5104395;28;19935;-68
2022/06/08 05:31:40;;;;;;;;;;;23.00;94.10;;;;;;5096785;27;19928;-66
2022/06/08 05:34:08;;;;;;;;;;;23.00;94.10;;;;;;5131591;27;19927;-66
2022/06/08 05:36:37;;;;;;;;;;;23.00;94.10;;;;;;5092582;28;19927;-70
2022/06/08 05:39:09;;;;;;;;;;;23.00;94.10;;;;;;5093372;28;19935;-68
2022/06/08 05:41:41;;;;;;;;;;;23.00;94.10;;;;;;5101435;27;19927;-70
2022/06/08 05:44:09;;;;;;;;;;;23.00;94.10;;;;;;5110226;28;19923;-66
2022/06/08 05:46:37;;;;;;;;;;;23.00;94.10;;;;;;5104618;27;19928;-69
2022/06/08 05:49:09;;;;;;;;;;;23.00;94.10;;;;;;5085997;28;19938;-70
2022/06/08 05:51:40;;;;;;;;;;;22.90;94.10;;;;;;5106538;27;19947;-68
2022/06/08 05:54:09;;;;;;;;;;;23.00;94.10;;;;;;5090455;28;19928;-67
2022/06/08 05:56:40;;;;;;;;;;;23.00;94.10;;;;;;5105196;28;19928;-69
2022/06/08 05:59:07;;;;;;;;;;;23.00;94.10;;;;;;5105495;27;20362;-68
2022/06/08 06:01:39;;;;;;;;;;;23.00;94.10;;;;;;5104128;28;19935;-69
2022/06/08 06:04:07;;;;;;;;;;;23.00;94.10;;;;;;5097613;28;19935;-67
2022/06/08 06:06:38;;;;;;;;;;;23.00;94.00;;;;;;5094886;28;20207;-66
2022/06/08 06:09:05;;;;;;;;;;;23.00;94.00;;;;;;5078683;28;20023;-64
2022/06/08 06:11:34;;;;;;;;;;;23.00;94.00;;;;;;5107990;27;19924;-68
2022/06/08 06:14:01;;;;;;;;;;;23.00;94.00;;;;;;5092869;28;19931;-69
2022/06/08 06:16:30;;;;;;;;;;;23.00;94.00;;;;;;5100309;28;19935;-68
2022/06/08 06:18:58;;;;;;;;;;;23.00;94.00;;;;;;5101656;28;20425;-68
2022/06/08 06:22:01;;;;;;;;;;;23.00;94.00;;;;;;5106387;28;20272;-67
2022/06/08 06:24:47;;;;;;;;;;;23.00;94.00;;;;;;5109404;28;19939;-68
2022/06/08 06:27:35;;;;;;;;;;;23.00;94.00;;;;;;5102386;28;19924;-67
2022/06/08 06:30:25;;;;;;;;;;;23.00;94.00;;;;;;5100149;28;19976;-69
2022/06/08 06:33:23;;;;;;;;;;;23.00;94.00;;;;;;5091452;28;19928;-66
2022/06/08 06:35:52;;;;;;;;;;;23.10;94.20;;;;;;5091133;28;19936;-68
2022/06/08 06:38:19;;;;;;;;;;;23.10;94.00;;;;;;5104467;28;20311;-68
2022/06/08 06:40:48;;;;;;;;;;;23.00;94.00;;;;;;5112594;27;19927;-66
2022/06/08 06:43:18;;;;;;;;;;;23.10;94.00;;;;;;5122288;27;19928;-70
2022/06/08 06:45:45;;;;;;;;;;;23.00;94.00;;;;;;5105459;28;19928;-70
2022/06/08 06:48:47;;;;;;;;;;;23.00;94.00;;;;;;5098138;28;20322;-69
2022/06/08 06:51:15;;;;;;;;;;;23.00;94.20;;;;;;5091317;28;19928;-67
2022/06/08 06:53:43;;;;;;;;;;;23.10;94.00;;;;;;5097921;28;20165;-69
2022/06/08 06:56:14;;;;;;;;;;;23.00;94.00;;;;;;5097739;28;20321;-68
2022/06/08 06:58:53;;;;;;;;;;;23.10;94.00;;;;;;5097330;28;19953;-69
2022/06/08 07:01:23;;;;;;;;;;;23.00;94.00;;;;;;5108818;28;19927;-68
2022/06/08 07:03:50;;;;;;;;;;;23.00;94.00;;;;;;5095044;28;20389;-68
2022/06/08 07:06:18;;;;;;;;;;;23.00;94.00;;;;;;5093814;28;20439;-69
2022/06/08 07:08:46;;;;;;;;;;;23.00;94.00;;;;;;5093918;28;19932;-67
2022/06/08 07:11:35;;;;;;;;;;;23.00;94.00;;;;;;5104041;28;19924;-68
2022/06/08 07:14:12;;;;;;;;;;;23.10;94.00;;;;;;5095269;28;20263;-64
2022/06/08 07:16:39;;;;;;;;;;;23.10;94.00;;;;;;5096296;28;19931;-67
2022/06/08 07:19:08;;;;;;;;;;;23.10;94.00;;;;;;5095907;28;20298;-68
2022/06/08 07:21:36;;;;;;;;;;;23.10;94.00;;;;;;5106090;28;19946;-68
2022/06/08 07:24:03;;;;;;;;;;;23.00;94.00;;;;;;5122084;28;19928;-68
2022/06/08 07:26:31;;;;;;;;;;;23.00;93.90;;;;;;5114607;28;20002;-68
2022/06/08 07:28:58;;;;;;;;;;;23.00;94.20;;;;;;5096854;28;20034;-69
2022/06/08 07:31:26;;;;;;;;;;;23.10;94.00;;;;;;5128550;28;20695;-68
2022/06/08 07:33:53;;;;;;;;;;;23.00;93.90;;;;;;5123656;28;19928;-66
2022/06/08 07:36:21;;;;;;;;;;;23.10;93.90;;;;;;5117686;27;19927;-68
2022/06/08 07:38:49;;;;;;;;;;;23.10;93.90;;;;;;5122319;27;20405;-68
2022/06/08 07:41:17;;;;;;;;;;;23.10;93.80;;;;;;5139892;27;20395;-67
2022/06/08 07:43:44;;;;;;;;;;;23.10;93.80;;;;;;5131515;27;20166;-67
2022/06/08 07:46:13;;;;;;;;;;;23.10;93.80;;;;;;5139793;27;20239;-68
2022/06/08 07:51:26;;;;;;;;;;;23.10;93.80;;;;;;5133387;27;19931;-69
2022/06/08 07:53:53;;;;;;;;;;;23.10;93.80;;;;;;5134737;27;20009;-64
2022/06/08 07:56:21;;;;;;;;;;;23.20;93.80;;;;;;5129587;27;19927;-67
2022/06/08 07:58:48;;;;;;;;;;;23.20;93.70;;;;;;5140719;27;19937;-67
2022/06/08 08:01:16;;;;;;;;;;;23.20;93.70;;;;;;5135884;27;19923;-66
2022/06/08 08:03:44;;;;;;;;;;;23.20;93.80;;;;;;5125415;28;19931;-67
2022/06/08 08:06:11;;;;;;;;;;;23.20;93.80;;;;;;5136911;27;20430;-69
2022/06/08 08:08:38;;;;;;;;;;;23.20;93.70;;;;;;5118349;27;19927;-68
2022/06/08 08:11:06;;;;;;;;;;;23.30;93.70;;;;;;5132441;27;19924;-69
2022/06/08 08:13:34;;;;;;;;;;;23.30;93.80;;;;;;5117479;27;20383;-66
2022/06/08 08:16:02;;;;;;;;;;;23.30;93.80;;;;;;5125079;27;19943;-67
2022/06/08 08:18:29;;;;;;;;;;;23.30;93.80;;;;;;5125445;27;20394;-66
2022/06/08 08:20:56;;;;;;;;;;;23.30;93.80;;;;;;5123242;27;19928;-68
2022/06/08 08:23:23;;;;;;;;;;;23.30;93.70;;;;;;5095791;28;19942;-67
2022/06/08 08:25:52;;;;;;;;;;;23.40;93.80;;;;;;5105459;28;19927;-66
2022/06/08 08:28:19;;;;;;;;;;;23.30;93.80;;;;;;5104900;27;20369;-66
2022/06/08 08:30:47;;;;;;;;;;;23.30;93.80;;;;;;5118212;27;19928;-65
2022/06/08 08:33:14;;;;;;;;;;;23.30;93.80;;;;;;5115892;27;19932;-66
2022/06/08 08:35:41;;;;;;;;;;;23.30;93.80;;;;;;5117027;27;19935;-67
2022/06/08 08:38:09;;;;;;;;;;;23.30;93.80;;;;;;5115972;27;19934;-66
2022/06/08 08:40:44;;;;;;;;;;;23.30;93.80;;;;;;5123203;27;19935;-65
2022/06/08 08:43:16;;;;;;;;;;;23.30;93.80;;;;;;5115543;28;19950;-67
2022/06/08 08:45:46;;;;;;;;;;;23.30;93.80;;;;;;5116497;27;19924;-66
2022/06/08 08:48:18;;;;;;;;;;;23.40;93.90;;;;;;5097472;28;19938;-65
2022/06/08 08:50:54;;;;;;;;;;;23.30;93.80;;;;;;5118085;27;20139;-69
2022/06/08 08:53:29;;;;;;;;;;;23.30;93.80;;;;;;5123362;27;19927;-65
2022/06/08 08:56:03;;;;;;;;;;;23.30;93.80;;;;;;5116992;28;19927;-67
2022/06/08 08:58:36;;;;;;;;;;;23.30;93.80;;;;;;5131507;27;19934;-64
2022/06/08 09:01:12;;;;;;;;;;;23.30;94.00;;;;;;5130712;27;19934;-64
2022/06/08 09:03:42;;;;;;;;;;;23.30;93.80;;;;;;5115714;27;19930;-63
2022/06/08 09:06:13;;;;;;;;;;;23.30;93.80;;;;;;5102238;27;19932;-65
2022/06/08 09:08:43;;;;;;;;;;;23.30;93.70;;;;;;5112248;28;20560;-65
2022/06/08 09:11:16;;;;;;;;;;;23.30;93.70;;;;;;5122057;27;19947;-66
2022/06/08 09:13:48;;;;;;;;;;;23.30;94.10;;;;;;5129163;27;19924;-67
2022/06/08 09:16:35;;;;;;;;;;;23.20;93.80;;;;;;5118142;27;19934;-67
2022/06/08 09:19:21;;;;;;;;;;;23.20;94.10;;;;;;5116502;27;19936;-66
2022/06/08 09:21:49;;;;;;;;;;;23.20;93.80;;;;;;5120146;27;19938;-65
2022/06/08 09:24:23;;;;;;;;;;;23.20;93.90;;;;;;5103828;27;19931;-68
2022/06/08 09:26:54;;;;;;;;;;;23.20;93.90;;;;;;5114323;27;19935;-66
2022/06/08 09:29:22;;;;;;;;;;;23.20;94.20;;;;;;5114312;27;19928;-67
2022/06/08 09:31:54;;;;;;;;;;;23.20;94.00;;;;;;5107714;28;20019;-65
2022/06/08 09:34:25;;;;;;;;;;;23.20;94.00;;;;;;5113884;27;19927;-67
2022/06/08 09:37:04;;;;;;;;;;;23.20;94.00;;;;;;5114086;27;19924;-67
2022/06/08 09:39:32;;;;;;;;;;;23.20;94.00;;;;;;5124927;27;20250;-68
2022/06/08 09:41:59;;;;;;;;;;;23.10;94.00;;;;;;5114020;27;19927;-67
2022/06/08 09:44:28;;;;;;;;;;;23.20;94.10;;;;;;5106384;28;20417;-68
2022/06/08 09:52:41;;;;;;;;;;;23.10;94.10;;;;;;5123566;27;20294;-67
2022/06/08 09:55:08;;;;;;;;;;;23.10;94.10;;;;;;5132742;27;20443;-68
2022/06/08 09:57:41;;;;;;;;;;;23.10;94.10;;;;;;5117948;27;19931;-70
2022/06/08 10:00:17;;;;;;;;;;;23.10;94.10;;;;;;5122685;27;19928;-68
2022/06/08 10:02:50;;;;;;;;;;;23.10;94.10;;;;;;5111861;28;19924;-68
2022/06/08 10:05:17;;;;;;;;;;;23.10;94.10;;;;;;5114235;27;19927;-67
2022/06/08 10:08:09;;;;;;;;;;;23.10;94.10;;;;;;5117694;27;20305;-68
2022/06/08 10:10:54;;;;;;;;;;;23.10;94.10;;;;;;5131203;27;19927;-66
2022/06/08 10:13:30;;;;;;;;;;;23.20;94.20;;;;;;5128276;27;19939;-68
2022/06/08 10:16:03;;;;;;;;;;;23.20;94.20;;;;;;5094058;27;19950;-68
2022/06/08 10:18:37;;;;;;;;;;;23.10;94.10;;;;;;5113187;27;19931;-70
2022/06/08 10:21:10;;;;;;;;;;;23.10;94.10;;;;;;5112658;27;19924;-66
2022/06/08 10:23:59;;;;;;;;;;;23.20;94.10;;;;;;5113443;27;19923;-71
2022/06/08 10:26:29;;;;;;;;;;;23.20;94.10;;;;;;5125687;27;19941;-67
2022/06/08 10:28:56;;;;;;;;;;;23.20;94.20;;;;;;5111709;27;19935;-68
2022/06/08 10:31:30;;;;;;;;;;;23.20;94.10;;;;;;5128788;27;19958;-67
2022/06/08 10:34:11;;;;;;;;;;;23.20;94.20;;;;;;5125121;27;19981;-68
2022/06/08 10:36:44;;;;;;;;;;;23.20;94.10;;;;;;5110554;27;19966;-69
2022/06/08 10:39:12;;;;;;;;;;;23.20;94.10;;;;;;5124798;27;20013;-69
2022/06/08 10:44:33;;;;;;;;;;;23.20;94.30;;;;;;5132334;27;19927;-61
2022/06/08 10:47:27;;;;;;;;;;;23.20;94.10;;;;;;5113297;27;20033;-69
2022/06/08 10:49:55;;;;;;;;;;;23.20;93.70;;;;;;5135516;27;19934;-64
2022/06/08 10:52:23;;;;;;;;;;;23.10;93.30;;;;;;5122915;27;19927;-66
2022/06/08 10:54:54;;;;;;;;;;;23.10;93.00;;;;;;5124062;27;20410;-65
2022/06/08 10:57:30;;;;;;;;;;;23.10;92.90;;;;;;5127954;27;20033;-61
2022/06/08 11:00:16;;;;;;;;;;;23.10;92.70;;;;;;5113428;28;19927;-66
2022/06/08 11:02:48;;;;;;;;;;;23.20;92.50;;;;;;5119074;28;19927;-65
2022/06/08 11:05:19;;;;;;;;;;;23.10;92.50;;;;;;5129325;28;19938;-64
2022/06/08 11:08:12;;;;;;;;;;;23.20;92.80;;;;;;5127383;28;19928;-71
2022/06/08 11:10:53;;;;;;;;;;;23.20;92.60;;;;;;5078675;27;19934;-63
2022/06/08 11:13:27;;;;;;;;;;;23.20;92.60;;;;;;5129121;27;19928;-63
2022/06/08 11:16:05;;;;;;;;;;;23.20;92.80;;;;;;5116437;27;19927;-66
2022/06/08 11:18:33;;;;;;;;;;;23.20;92.70;;;;;;5131912;27;20405;-66
2022/06/08 11:21:06;;;;;;;;;;;23.20;93.80;;;;;;5123002;27;19928;-66
2022/06/08 11:23:38;;;;;;;;;;;23.20;93.50;;;;;;5137301;27;19924;-66
2022/06/08 11:26:05;;;;;;;;;;;23.20;94.00;;;;;;5139686;27;19939;-62
2022/06/08 11:28:39;;;;;;;;;;;23.20;94.00;;;;;;5134428;27;19927;-65
2022/06/08 11:31:09;;;;;;;;;;;23.20;94.20;;;;;;5133912;27;19927;-63
2022/06/08 11:33:49;;;;;;;;;;;23.20;94.80;;;;;;5129701;27;20382;-63
2022/06/08 11:36:29;;;;;;;;;;;23.20;95.70;;;;;;5124950;27;19934;-60
2022/06/08 11:39:01;;;;;;;;;;;23.20;96.30;;;;;;5139432;27;20016;-64
2022/06/08 11:41:34;;;;;;;;;;;23.20;97.00;;;;;;5136388;27;20002;-63
2022/06/08 11:44:16;;;;;;;;;;;23.30;97.30;;;;;;5143365;27;19938;-63
2022/06/08 11:46:45;;;;;;;;;;;23.40;98.00;;;;;;5131451;27;19934;-61
2022/06/08 11:49:27;;;;;;;;;;;23.40;98.40;;;;;;5117955;27;20382;-66
2022/06/08 11:51:54;;;;;;;;;;;23.40;98.70;;;;;;5129110;27;19930;-65
2022/06/08 11:54:27;;;;;;;;;;;23.40;98.80;;;;;;5099829;28;19928;-67
2022/06/08 11:57:04;;;;;;;;;;;23.50;98.70;;;;;;5101972;28;20359;-63
2022/06/08 11:59:36;;;;;;;;;;;23.50;98.80;;;;;;5127794;27;19928;-62
2022/06/08 12:02:24;;;;;;;;;;;23.50;99.10;;;;;;5096646;28;20370;-69
2022/06/08 12:04:54;;;;;;;;;;;23.50;99.10;;;;;;5118046;27;19927;-65
2022/06/08 12:07:35;;;;;;;;;;;23.50;99.20;;;;;;5116932;27;19924;-64
2022/06/08 12:10:07;;;;;;;;;;;23.50;99.20;;;;;;5118201;27;19924;-66
2022/06/08 12:12:34;;;;;;;;;;;23.50;99.30;;;;;;5105045;27;20330;-62
2022/06/08 12:15:19;;;;;;;;;;;23.60;99.80;;;;;;5118149;27;20007;-67
2022/06/08 12:17:48;;;;;;;;;;;23.60;99.30;;;;;;5127158;27;19943;-63
2022/06/08 12:20:36;;;;;;;;;;;23.50;99.00;;;;;;5124601;27;20286;-65
2022/06/08 12:23:03;;;;;;;;;;;23.40;99.00;;;;;;5130523;27;20357;-64
2022/06/08 12:25:31;;;;;;;;;;;23.40;99.00;;;;;;5127210;27;19934;-66
2022/06/08 12:28:00;;;;;;;;;;;23.40;99.60;;;;;;5129492;27;19923;-64
2022/06/08 12:30:32;;;;;;;;;;;23.40;99.90;;;;;;5119648;27;19931;-68
2022/06/08 12:33:01;;;;;;;;;;;23.40;99.90;;;;;;5128435;27;20321;-66
2022/06/08 12:35:28;;;;;;;;;;;23.40;99.90;;;;;;5121544;27;20429;-66
2022/06/08 12:38:11;;;;;;;;;;;23.40;99.90;;;;;;5134239;27;19928;-69
2022/06/08 12:40:39;;;;;;;;;;;23.40;99.90;;;;;;5102234;27;19928;-68
2022/06/08 12:43:06;;;;;;;;;;;23.40;99.90;;;;;;5140398;27;19938;-68
2022/06/08 12:45:35;;;;;;;;;;;23.30;99.90;;;;;;5132995;27;20432;-64
2022/06/08 12:48:21;;;;;;;;;;;23.40;99.90;;;;;;5120810;27;20588;-67
2022/06/08 12:50:48;;;;;;;;;;;23.40;99.90;;;;;;5130649;27;19946;-68
2022/06/08 12:53:16;;;;;;;;;;;23.30;99.90;;;;;;5134783;27;20394;-68
2022/06/08 12:55:43;;;;;;;;;;;23.40;99.90;;;;;;5129879;27;19924;-66
2022/06/08 12:58:10;;;;;;;;;;;23.40;99.90;;;;;;5127508;27;20294;-69
2022/06/08 13:00:38;;;;;;;;;;;23.40;99.90;;;;;;5127965;27;19924;-68
2022/06/08 13:03:35;;;;;;;;;;;23.40;99.90;;;;;;5114006;27;19934;-67
2022/06/08 13:06:03;;;;;;;;;;;23.40;99.90;;;;;;5110737;27;19927;-67
2022/06/08 13:08:30;;;;;;;;;;;23.40;99.90;;;;;;5128850;27;19927;-69
2022/06/08 13:11:00;;;;;;;;;;;23.40;99.90;;;;;;5125390;27;19923;-66
2022/06/08 13:13:29;;;;;;;;;;;23.40;99.90;;;;;;5143190;27;19931;-68
2022/06/08 13:15:57;;;;;;;;;;;23.40;99.90;;;;;;5130477;27;19931;-66
2022/06/08 13:18:26;;;;;;;;;;;23.40;99.90;;;;;;5124223;27;19954;-66
2022/06/08 13:20:55;;;;;;;;;;;23.40;99.90;;;;;;5113766;27;19927;-66
2022/06/08 13:23:23;;;;;;;;;;;23.40;99.90;;;;;;5107190;27;20003;-67
2022/06/08 13:25:51;;;;;;;;;;;23.40;99.90;;;;;;5127740;27;20488;-67
2022/06/08 13:28:20;;;;;;;;;;;23.40;99.90;;;;;;5126645;27;19972;-65
2022/06/08 13:30:48;;;;;;;;;;;23.40;99.90;;;;;;5122569;27;19928;-63
2022/06/08 13:36:16;;;;;;;;;;;23.40;99.90;;;;;;5128400;27;19927;-68
2022/06/08 13:38:45;;;;;;;;;;;23.40;99.90;;;;;;5103769;27;19923;-67
2022/06/08 13:41:12;;;;;;;;;;;23.40;99.90;;;;;;5105848;27;20386;-67
2022/06/08 13:43:40;;;;;;;;;;;23.40;99.90;;;;;;5104245;27;20401;-65
2022/06/08 13:46:13;;;;;;;;;;;23.40;99.90;;;;;;5122164;27;19936;-66
2022/06/08 13:48:40;;;;;;;;;;;23.50;99.90;;;;;;5133720;27;19930;-66
2022/06/08 13:51:08;;;;;;;;;;;23.50;99.90;;;;;;5125390;27;19943;-66
2022/06/08 13:53:36;;;;;;;;;;;23.50;99.90;;;;;;5107656;27;19931;-67
2022/06/08 13:56:03;;;;;;;;;;;23.50;99.90;;;;;;5129347;27;19927;-66
2022/06/08 13:58:30;;;;;;;;;;;23.50;99.90;;;;;;5137981;27;20430;-65
2022/06/08 14:01:00;;;;;;;;;;;23.60;99.90;;;;;;5128743;27;19939;-60
2022/06/08 14:03:30;;;;;;;;;;;23.60;99.90;;;;;;5128759;27;19931;-68
2022/06/08 14:14:18;;;;;;;;;;;23.70;99.90;;;;;;5139727;27;20684;-65
2022/06/08 14:16:51;;;;;;;;;;;23.70;99.90;;;;;;5102799;28;20033;-65
2022/06/08 14:19:26;;;;;;;;;;;23.70;99.90;;;;;;5122360;27;19927;-64
2022/06/08 14:21:56;;;;;;;;;;;23.70;99.90;;;;;;5128473;27;19927;-68
2022/06/08 14:24:28;;;;;;;;;;;23.70;99.90;;;;;;5149460;27;19927;-63
2022/06/08 14:26:57;;;;;;;;;;;23.70;99.90;;;;;;5138443;27;19927;-67
2022/06/08 14:29:24;;;;;;;;;;;23.70;99.90;;;;;;5121886;27;20572;-66
2022/06/08 14:31:53;;;;;;;;;;;23.70;99.90;;;;;;5106104;27;19934;-63
2022/06/08 14:34:23;;;;;;;;;;;23.70;99.90;;;;;;5123719;27;20299;-67
2022/06/08 14:36:51;;;;;;;;;;;23.70;99.90;;;;;;5129308;27;20402;-63
2022/06/08 14:39:27;;;;;;;;;;;23.70;99.90;;;;;;5141686;27;20413;-67
2022/06/08 14:41:54;;;;;;;;;;;23.70;99.90;;;;;;5149576;27;20354;-66
2022/06/08 14:44:22;;;;;;;;;;;23.70;99.90;;;;;;5131003;27;19927;-68
2022/06/08 14:47:12;;;;;;;;;;;23.70;99.90;;;;;;5132376;27;19924;-67
2022/06/08 14:49:39;;;;;;;;;;;23.70;99.90;;;;;;5131922;27;19935;-64
2022/06/08 14:52:08;;;;;;;;;;;23.70;99.90;;;;;;5134368;27;19934;-67
2022/06/08 14:54:36;;;;;;;;;;;23.70;99.90;;;;;;5124558;27;19950;-65
2022/06/08 14:57:25;;;;;;;;;;;23.70;99.90;;;;;;5130631;27;20326;-64
2022/06/08 14:59:54;;;;;;;;;;;23.70;99.90;;;;;;5134813;27;19928;-65
2022/06/08 15:02:29;;;;;;;;;;;23.70;99.90;;;;;;5142819;27;20391;-66
2022/06/08 15:04:57;;;;;;;;;;;23.70;99.90;;;;;;5127815;27;20310;-64
2022/06/08 15:07:24;;;;;;;;;;;23.70;99.90;;;;;;5136712;27;19943;-64